Strona główna
METAR-TAF:

METAR-TAF

Lotnisko :

Port lotniczy Skellefteå

Skellefteå, Szwecja

Szerokość geograficzna: 64-38N, Długość geograficzna: 021-05E, wysokość: 49 m

Aktualna obserwacja pogody

Raport powstał 20 minut temu, godzina 08:50 UTC
Wiatr 15 kt od zachód, zmienny między zachodnio-południowy zachód i północny zachód
Temperatura 2°C
Wilgotność 47%
Ciśnienie 1015 hPa
Widzialność 10 km lub więcej

METAR: ESNS 100850Z AUTO 28015KT 250V310 9999 NCD 02/M08 Q1015

czas: 11:10 (09:10 UTC)

Prognoza

Raport powstał 3 godziny i 40 minut temu, godzina 05:30 UTC
Prognoza ważna od 10 godzina 06 UTC do 10 godzina 09 UTC
Wiatr 8 kt od zachód
Widzialność 10 km lub więcej
Brak chmur poniżej 1500 m i brak chmur cumulonimbus

TAF: ESNS 100530Z 1006/1009 27008KT CAVOK

Obserwacja i prognoza pogody dla ponad 4000 lotnisk (raport METAR i TAF).

Dostępne stacje oznaczono żółtymi i czerwonymi punktami na mapie.

Najedź kursorem aby zobaczyć nazwę stacji.

Kliknij aby zobaczyć obserwacje i prognozy pogody.

Aby zmienić mapę: kliknij na zielony przycisk z czarnym krzyżykiem, aby powiększyć; na zielony przycisk z myślnikiem, aby pomniejszyć; na zielone strzałki, aby przejść do map sąsiednich.


METAR-TAF: